sensor_id;sensor_type;location;lat;lon;timestamp;pressure;altitude;pressure_sealevel;temperature
72405;BMP280;60395;52.020;113.548;2023-08-21T00:02:30;92240.28;;;36.11
72405;BMP280;60395;52.020;113.548;2023-08-21T00:05:33;92230.66;;;36.47
72405;BMP280;60395;52.020;113.548;2023-08-21T00:08:37;92243.03;;;36.26
72405;BMP280;60395;52.020;113.548;2023-08-21T00:11:40;92240.72;;;36.33
72405;BMP280;60395;52.020;113.548;2023-08-21T00:14:43;92235.91;;;36.69
72405;BMP280;60395;52.020;113.548;2023-08-21T00:17:47;92231.06;;;37.06
72405;BMP280;60395;52.020;113.548;2023-08-21T00:20:50;92234.13;;;36.88
72405;BMP280;60395;52.020;113.548;2023-08-21T00:23:53;92241.16;;;36.25
72405;BMP280;60395;52.020;113.548;2023-08-21T00:26:56;92238.31;;;35.36
72405;BMP280;60395;52.020;113.548;2023-08-21T00:30:00;92236.34;;;35.41
72405;BMP280;60395;52.020;113.548;2023-08-21T00:33:04;92235.47;;;34.94
72405;BMP280;60395;52.020;113.548;2023-08-21T00:36:08;92235.13;;;35.29
72405;BMP280;60395;52.020;113.548;2023-08-21T00:39:11;92238.19;;;34.94
72405;BMP280;60395;52.020;113.548;2023-08-21T00:42:14;92235.53;;;34.38
72405;BMP280;60395;52.020;113.548;2023-08-21T00:45:17;92238.63;;;33.29
72405;BMP280;60395;52.020;113.548;2023-08-21T00:48:21;92245.19;;;31.71
72405;BMP280;60395;52.020;113.548;2023-08-21T00:51:24;92236.91;;;29.31
72405;BMP280;60395;52.020;113.548;2023-08-21T00:54:28;92248.41;;;27.58
72405;BMP280;60395;52.020;113.548;2023-08-21T00:57:31;92248.19;;;27.17
72405;BMP280;60395;52.020;113.548;2023-08-21T01:00:35;92242.31;;;25.40
72405;BMP280;60395;52.020;113.548;2023-08-21T01:03:38;92236.94;;;24.18
72405;BMP280;60395;52.020;113.548;2023-08-21T01:06:42;92242.06;;;23.43
72405;BMP280;60395;52.020;113.548;2023-08-21T01:09:50;92242.41;;;22.94
72405;BMP280;60395;52.020;113.548;2023-08-21T01:16:18;92250.09;;;22.25
72405;BMP280;60395;52.020;113.548;2023-08-21T01:19:43;92247.91;;;22.09
72405;BMP280;60395;52.020;113.548;2023-08-21T01:22:46;92251.72;;;21.73
72405;BMP280;60395;52.020;113.548;2023-08-21T01:25:50;92247.13;;;21.53
72405;BMP280;60395;52.020;113.548;2023-08-21T01:28:53;92252.41;;;21.44
72405;BMP280;60395;52.020;113.548;2023-08-21T01:32:18;92253.84;;;21.33
72405;BMP280;60395;52.020;113.548;2023-08-21T01:35:25;92253.41;;;21.09
72405;BMP280;60395;52.020;113.548;2023-08-21T01:38:33;92249.78;;;20.93
72405;BMP280;60395;52.020;113.548;2023-08-21T01:41:36;92250.59;;;20.60
72405;BMP280;60395;52.020;113.548;2023-08-21T01:44:39;92237.78;;;20.42
72405;BMP280;60395;52.020;113.548;2023-08-21T01:47:42;92245.16;;;20.30
72405;BMP280;60395;52.020;113.548;2023-08-21T01:50:46;92235.78;;;20.21
72405;BMP280;60395;52.020;113.548;2023-08-21T01:53:49;92238.44;;;20.10
72405;BMP280;60395;52.020;113.548;2023-08-21T01:56:52;92234.00;;;19.96
72405;BMP280;60395;52.020;113.548;2023-08-21T01:59:56;92236.13;;;19.94
72405;BMP280;60395;52.020;113.548;2023-08-21T02:02:59;92237.38;;;19.74
72405;BMP280;60395;52.020;113.548;2023-08-21T02:06:03;92231.13;;;19.67
72405;BMP280;60395;52.020;113.548;2023-08-21T02:09:07;92232.94;;;19.70
72405;BMP280;60395;52.020;113.548;2023-08-21T02:12:11;92228.75;;;19.73
72405;BMP280;60395;52.020;113.548;2023-08-21T02:15:14;92231.25;;;19.75
72405;BMP280;60395;52.020;113.548;2023-08-21T02:18:17;92219.22;;;19.76
72405;BMP280;60395;52.020;113.548;2023-08-21T02:21:21;92223.66;;;19.69
72405;BMP280;60395;52.020;113.548;2023-08-21T02:24:24;92215.50;;;19.50
72405;BMP280;60395;52.020;113.548;2023-08-21T02:27:27;92206.41;;;19.24
72405;BMP280;60395;52.020;113.548;2023-08-21T02:30:30;92210.72;;;19.19
72405;BMP280;60395;52.020;113.548;2023-08-21T02:33:34;92205.59;;;19.15
72405;BMP280;60395;52.020;113.548;2023-08-21T02:36:37;92206.78;;;19.18
72405;BMP280;60395;52.020;113.548;2023-08-21T02:39:40;92200.75;;;19.30
72405;BMP280;60395;52.020;113.548;2023-08-21T02:42:43;92196.47;;;19.45
72405;BMP280;60395;52.020;113.548;2023-08-21T02:45:47;92191.41;;;19.52
72405;BMP280;60395;52.020;113.548;2023-08-21T02:48:51;92185.59;;;19.60
72405;BMP280;60395;52.020;113.548;2023-08-21T02:51:55;92179.63;;;19.70
72405;BMP280;60395;52.020;113.548;2023-08-21T02:54:59;92185.88;;;19.77
72405;BMP280;60395;52.020;113.548;2023-08-21T02:58:03;92183.31;;;19.75
72405;BMP280;60395;52.020;113.548;2023-08-21T03:01:07;92178.22;;;19.71
72405;BMP280;60395;52.020;113.548;2023-08-21T03:04:10;92177.84;;;19.67
72405;BMP280;60395;52.020;113.548;2023-08-21T03:07:15;92177.50;;;19.62
72405;BMP280;60395;52.020;113.548;2023-08-21T03:10:18;92169.59;;;19.60
72405;BMP280;60395;52.020;113.548;2023-08-21T03:13:22;92176.31;;;19.59
72405;BMP280;60395;52.020;113.548;2023-08-21T03:16:26;92162.38;;;19.69
72405;BMP280;60395;52.020;113.548;2023-08-21T03:19:30;92165.56;;;19.82
72405;BMP280;60395;52.020;113.548;2023-08-21T03:22:34;92154.50;;;19.88
72405;BMP280;60395;52.020;113.548;2023-08-21T03:25:38;92151.97;;;19.86
72405;BMP280;60395;52.020;113.548;2023-08-21T03:28:42;92153.50;;;19.94
72405;BMP280;60395;52.020;113.548;2023-08-21T03:31:49;92144.59;;;20.08
72405;BMP280;60395;52.020;113.548;2023-08-21T03:34:53;92142.06;;;20.16
72405;BMP280;60395;52.020;113.548;2023-08-21T03:37:56;92137.34;;;20.27
72405;BMP280;60395;52.020;113.548;2023-08-21T03:41:10;92137.34;;;20.38
72405;BMP280;60395;52.020;113.548;2023-08-21T03:44:14;92137.78;;;20.62
72405;BMP280;60395;52.020;113.548;2023-08-21T03:47:17;92134.47;;;20.61
72405;BMP280;60395;52.020;113.548;2023-08-21T03:50:28;92125.44;;;20.67
72405;BMP280;60395;52.020;113.548;2023-08-21T03:53:32;92125.81;;;20.71
72405;BMP280;60395;52.020;113.548;2023-08-21T03:56:35;92128.69;;;20.78
72405;BMP280;60395;52.020;113.548;2023-08-21T03:59:39;92125.97;;;20.88
72405;BMP280;60395;52.020;113.548;2023-08-21T04:02:42;92123.28;;;20.99
72405;BMP280;60395;52.020;113.548;2023-08-21T04:05:46;92117.44;;;20.96
72405;BMP280;60395;52.020;113.548;2023-08-21T04:08:50;92123.00;;;21.22
72405;BMP280;60395;52.020;113.548;2023-08-21T04:11:56;92121.59;;;21.61
72405;BMP280;60395;52.020;113.548;2023-08-21T04:14:59;92120.09;;;21.73
72405;BMP280;60395;52.020;113.548;2023-08-21T04:18:04;92113.69;;;21.79
72405;BMP280;60395;52.020;113.548;2023-08-21T04:21:17;92107.69;;;21.97
72405;BMP280;60395;52.020;113.548;2023-08-21T04:24:21;92094.50;;;22.40
72405;BMP280;60395;52.020;113.548;2023-08-21T04:27:27;92108.56;;;22.49
72405;BMP280;60395;52.020;113.548;2023-08-21T04:30:31;92097.22;;;22.49
72405;BMP280;60395;52.020;113.548;2023-08-21T04:33:34;92097.84;;;22.49
72405;BMP280;60395;52.020;113.548;2023-08-21T04:36:38;92092.72;;;22.64
72405;BMP280;60395;52.020;113.548;2023-08-21T04:39:42;92109.47;;;22.90
72405;BMP280;60395;52.020;113.548;2023-08-21T04:42:45;92099.66;;;22.78
72405;BMP280;60395;52.020;113.548;2023-08-21T04:45:50;92105.03;;;22.78
72405;BMP280;60395;52.020;113.548;2023-08-21T04:48:56;92113.94;;;22.66
72405;BMP280;60395;52.020;113.548;2023-08-21T04:51:59;92119.06;;;22.42
72405;BMP280;60395;52.020;113.548;2023-08-21T04:55:04;92108.94;;;22.26
72405;BMP280;60395;52.020;113.548;2023-08-21T04:58:09;92115.19;;;22.14
72405;BMP280;60395;52.020;113.548;2023-08-21T05:01:13;92121.78;;;22.15
72405;BMP280;60395;52.020;113.548;2023-08-21T05:04:22;92114.72;;;22.20
72405;BMP280;60395;52.020;113.548;2023-08-21T05:07:25;92121.78;;;22.15
72405;BMP280;60395;52.020;113.548;2023-08-21T05:10:33;92114.13;;;22.00
72405;BMP280;60395;52.020;113.548;2023-08-21T05:13:37;92114.88;;;21.90
72405;BMP280;60395;52.020;113.548;2023-08-21T05:16:43;92105.88;;;21.85
72405;BMP280;60395;52.020;113.548;2023-08-21T05:19:47;92111.75;;;21.68
72405;BMP280;60395;52.020;113.548;2023-08-21T05:22:51;92112.41;;;21.78
72405;BMP280;60395;52.020;113.548;2023-08-21T05:25:55;92116.03;;;22.02
72405;BMP280;60395;52.020;113.548;2023-08-21T05:28:58;92109.72;;;22.24
72405;BMP280;60395;52.020;113.548;2023-08-21T05:32:02;92109.63;;;22.43
72405;BMP280;60395;52.020;113.548;2023-08-21T05:35:05;92112.66;;;22.48
72405;BMP280;60395;52.020;113.548;2023-08-21T05:38:08;92106.09;;;22.28
72405;BMP280;60395;52.020;113.548;2023-08-21T05:41:12;92107.47;;;22.18
72405;BMP280;60395;52.020;113.548;2023-08-21T05:44:15;92111.16;;;22.32
72405;BMP280;60395;52.020;113.548;2023-08-21T05:47:19;92103.19;;;22.49
72405;BMP280;60395;52.020;113.548;2023-08-21T05:50:22;92100.38;;;22.51
72405;BMP280;60395;52.020;113.548;2023-08-21T05:53:26;92092.72;;;22.73
72405;BMP280;60395;52.020;113.548;2023-08-21T05:56:29;92089.75;;;22.85
72405;BMP280;60395;52.020;113.548;2023-08-21T05:59:32;92093.56;;;23.14
72405;BMP280;60395;52.020;113.548;2023-08-21T06:02:37;92096.25;;;23.23
72405;BMP280;60395;52.020;113.548;2023-08-21T06:05:41;92097.53;;;23.24
72405;BMP280;60395;52.020;113.548;2023-08-21T06:08:46;92089.00;;;23.21
72405;BMP280;60395;52.020;113.548;2023-08-21T06:11:51;92095.47;;;23.15
72405;BMP280;60395;52.020;113.548;2023-08-21T06:14:54;92087.09;;;23.11
72405;BMP280;60395;52.020;113.548;2023-08-21T06:17:58;92086.19;;;23.23
72405;BMP280;60395;52.020;113.548;2023-08-21T06:21:02;92089.94;;;23.26
72405;BMP280;60395;52.020;113.548;2023-08-21T06:24:06;92088.69;;;23.34
72405;BMP280;60395;52.020;113.548;2023-08-21T06:27:10;92087.44;;;23.24
72405;BMP280;60395;52.020;113.548;2023-08-21T06:30:13;92084.59;;;23.35
72405;BMP280;60395;52.020;113.548;2023-08-21T06:33:16;92084.44;;;23.37
72405;BMP280;60395;52.020;113.548;2023-08-21T06:36:20;92083.63;;;23.21
72405;BMP280;60395;52.020;113.548;2023-08-21T06:39:23;92081.91;;;23.00
72405;BMP280;60395;52.020;113.548;2023-08-21T06:42:27;92080.00;;;22.90
72405;BMP280;60395;52.020;113.548;2023-08-21T06:45:31;92078.22;;;22.70
72405;BMP280;60395;52.020;113.548;2023-08-21T06:48:39;92074.91;;;22.61
72405;BMP280;60395;52.020;113.548;2023-08-21T06:51:46;92077.69;;;22.50
72405;BMP280;60395;52.020;113.548;2023-08-21T06:54:49;92063.53;;;22.43
72405;BMP280;60395;52.020;113.548;2023-08-21T06:57:52;92075.59;;;22.33
72405;BMP280;60395;52.020;113.548;2023-08-21T07:00:55;92074.44;;;22.22
72405;BMP280;60395;52.020;113.548;2023-08-21T07:03:59;92068.75;;;22.17
72405;BMP280;60395;52.020;113.548;2023-08-21T07:07:02;92076.50;;;22.21
72405;BMP280;60395;52.020;113.548;2023-08-21T07:10:06;92080.50;;;22.39
72405;BMP280;60395;52.020;113.548;2023-08-21T07:13:09;92074.50;;;22.39
72405;BMP280;60395;52.020;113.548;2023-08-21T07:16:12;92060.50;;;22.38
72405;BMP280;60395;52.020;113.548;2023-08-21T07:19:17;92060.22;;;22.51
72405;BMP280;60395;52.020;113.548;2023-08-21T07:22:20;92060.59;;;22.73
72405;BMP280;60395;52.020;113.548;2023-08-21T07:25:23;92065.34;;;23.06
72405;BMP280;60395;52.020;113.548;2023-08-21T07:28:29;92059.34;;;23.32
72405;BMP280;60395;52.020;113.548;2023-08-21T07:31:32;92061.69;;;23.61
72405;BMP280;60395;52.020;113.548;2023-08-21T07:34:36;92056.47;;;23.85
72405;BMP280;60395;52.020;113.548;2023-08-21T07:37:39;92058.13;;;23.97
72405;BMP280;60395;52.020;113.548;2023-08-21T07:40:44;92055.16;;;23.92
72405;BMP280;60395;52.020;113.548;2023-08-21T07:43:47;92055.16;;;23.92
72405;BMP280;60395;52.020;113.548;2023-08-21T07:46:50;92057.69;;;23.86
72405;BMP280;60395;52.020;113.548;2023-08-21T07:49:54;92063.13;;;23.69
72405;BMP280;60395;52.020;113.548;2023-08-21T07:52:58;92063.91;;;23.59
72405;BMP280;60395;52.020;113.548;2023-08-21T07:56:02;92075.28;;;22.99
72405;BMP280;60395;52.020;113.548;2023-08-21T07:59:09;92079.06;;;22.32
72405;BMP280;60395;52.020;113.548;2023-08-21T08:02:13;92110.28;;;21.23
72405;BMP280;60395;52.020;113.548;2023-08-21T08:05:16;92112.53;;;19.68
72405;BMP280;60395;52.020;113.548;2023-08-21T08:08:19;92117.53;;;18.51
72405;BMP280;60395;52.020;113.548;2023-08-21T08:11:23;92120.59;;;17.74
72405;BMP280;60395;52.020;113.548;2023-08-21T08:14:27;92131.66;;;17.40
72405;BMP280;60395;52.020;113.548;2023-08-21T08:17:30;92146.00;;;17.20
72405;BMP280;60395;52.020;113.548;2023-08-21T08:20:33;92151.19;;;17.10
72405;BMP280;60395;52.020;113.548;2023-08-21T08:23:37;92145.25;;;17.09
72405;BMP280;60395;52.020;113.548;2023-08-21T08:26:40;92150.34;;;17.13
72405;BMP280;60395;52.020;113.548;2023-08-21T08:29:45;92149.69;;;17.13
72405;BMP280;60395;52.020;113.548;2023-08-21T08:32:48;92146.22;;;17.16
72405;BMP280;60395;52.020;113.548;2023-08-21T08:35:52;92144.06;;;17.19
72405;BMP280;60395;52.020;113.548;2023-08-21T08:38:55;92140.34;;;17.26
72405;BMP280;60395;52.020;113.548;2023-08-21T08:42:03;92130.81;;;17.31
72405;BMP280;60395;52.020;113.548;2023-08-21T08:45:06;92137.19;;;17.36
72405;BMP280;60395;52.020;113.548;2023-08-21T08:48:10;92129.00;;;17.40
72405;BMP280;60395;52.020;113.548;2023-08-21T08:51:15;92126.78;;;17.45
72405;BMP280;60395;52.020;113.548;2023-08-21T08:54:20;92122.53;;;17.50
72405;BMP280;60395;52.020;113.548;2023-08-21T08:57:23;92118.47;;;17.51
72405;BMP280;60395;52.020;113.548;2023-08-21T09:00:26;92124.28;;;17.66
72405;BMP280;60395;52.020;113.548;2023-08-21T09:03:30;92118.44;;;17.76
72405;BMP280;60395;52.020;113.548;2023-08-21T09:06:33;92126.81;;;17.81
72405;BMP280;60395;52.020;113.548;2023-08-21T09:09:40;92123.94;;;17.85
72405;BMP280;60395;52.020;113.548;2023-08-21T09:12:47;92123.22;;;17.86
72405;BMP280;60395;52.020;113.548;2023-08-21T09:15:53;92121.06;;;17.89
72405;BMP280;60395;52.020;113.548;2023-08-21T09:18:58;92116.75;;;17.71
72405;BMP280;60395;52.020;113.548;2023-08-21T09:22:19;92116.88;;;17.56
72405;BMP280;60395;52.020;113.548;2023-08-21T09:25:23;92118.69;;;17.59
72405;BMP280;60395;52.020;113.548;2023-08-21T09:28:28;92121.88;;;17.75
72405;BMP280;60395;52.020;113.548;2023-08-21T09:31:33;92123.63;;;17.91
72405;BMP280;60395;52.020;113.548;2023-08-21T09:34:39;92111.16;;;18.00
72405;BMP280;60395;52.020;113.548;2023-08-21T09:37:46;92109.31;;;18.09
72405;BMP280;60395;52.020;113.548;2023-08-21T09:40:51;92113.66;;;18.14
72405;BMP280;60395;52.020;113.548;2023-08-21T09:44:01;92115.84;;;18.22
72405;BMP280;60395;52.020;113.548;2023-08-21T09:47:10;92120.75;;;18.30
72405;BMP280;60395;52.020;113.548;2023-08-21T09:50:15;92121.88;;;18.33
72405;BMP280;60395;52.020;113.548;2023-08-21T09:53:20;92127.78;;;18.47
72405;BMP280;60395;52.020;113.548;2023-08-21T09:56:25;92133.25;;;18.55
72405;BMP280;60395;52.020;113.548;2023-08-21T09:59:30;92135.97;;;18.66
72405;BMP280;60395;52.020;113.548;2023-08-21T10:02:34;92123.59;;;18.73
72405;BMP280;60395;52.020;113.548;2023-08-21T10:05:39;92125.09;;;18.70
72405;BMP280;60395;52.020;113.548;2023-08-21T10:08:42;92117.81;;;18.81
72405;BMP280;60395;52.020;113.548;2023-08-21T10:11:49;92128.53;;;18.68
72405;BMP280;60395;52.020;113.548;2023-08-21T10:14:54;92131.41;;;18.64
72405;BMP280;60395;52.020;113.548;2023-08-21T10:18:39;92138.28;;;18.72
72405;BMP280;60395;52.020;113.548;2023-08-21T10:21:49;92139.56;;;18.73
72405;BMP280;60395;52.020;113.548;2023-08-21T10:24:59;92145.22;;;18.67
72405;BMP280;60395;52.020;113.548;2023-08-21T10:28:03;92139.44;;;18.52
72405;BMP280;60395;52.020;113.548;2023-08-21T10:31:30;92143.13;;;18.33
72405;BMP280;60395;52.020;113.548;2023-08-21T10:34:37;92152.22;;;18.26
72405;BMP280;60395;52.020;113.548;2023-08-21T10:38:12;92147.00;;;18.24
72405;BMP280;60395;52.020;113.548;2023-08-21T10:41:18;92147.16;;;18.09
72405;BMP280;60395;52.020;113.548;2023-08-21T10:48:01;92142.75;;;17.93
72405;BMP280;60395;52.020;113.548;2023-08-21T10:51:06;92143.59;;;17.90
72405;BMP280;60395;52.020;113.548;2023-08-21T10:54:11;92146.59;;;17.84
72405;BMP280;60395;52.020;113.548;2023-08-21T10:57:16;92140.75;;;17.81
72405;BMP280;60395;52.020;113.548;2023-08-21T11:00:20;92145.53;;;17.79
72405;BMP280;60395;52.020;113.548;2023-08-21T11:03:24;92146.91;;;17.78
72405;BMP280;60395;52.020;113.548;2023-08-21T11:06:28;92145.00;;;17.76
72405;BMP280;60395;52.020;113.548;2023-08-21T11:09:31;92155.94;;;17.70
72405;BMP280;60395;52.020;113.548;2023-08-21T11:12:34;92163.50;;;17.65
72405;BMP280;60395;52.020;113.548;2023-08-21T11:15:37;92166.69;;;17.55
72405;BMP280;60395;52.020;113.548;2023-08-21T11:18:41;92167.13;;;17.47
72405;BMP280;60395;52.020;113.548;2023-08-21T11:21:51;92172.22;;;17.39
72405;BMP280;60395;52.020;113.548;2023-08-21T11:24:54;92170.31;;;17.25
72405;BMP280;60395;52.020;113.548;2023-08-21T11:27:57;92171.78;;;17.09
72405;BMP280;60395;52.020;113.548;2023-08-21T11:31:01;92164.53;;;16.95
72405;BMP280;60395;52.020;113.548;2023-08-21T11:34:04;92164.41;;;16.84
72405;BMP280;60395;52.020;113.548;2023-08-21T11:37:26;92170.31;;;16.72
72405;BMP280;60395;52.020;113.548;2023-08-21T11:40:36;92167.69;;;16.58
72405;BMP280;60395;52.020;113.548;2023-08-21T11:43:42;92168.28;;;16.45
72405;BMP280;60395;52.020;113.548;2023-08-21T11:46:46;92169.69;;;16.30
72405;BMP280;60395;52.020;113.548;2023-08-21T11:49:50;92170.84;;;16.20
72405;BMP280;60395;52.020;113.548;2023-08-21T11:52:55;92171.50;;;16.06
72405;BMP280;60395;52.020;113.548;2023-08-21T11:55:58;92171.44;;;15.94
72405;BMP280;60395;52.020;113.548;2023-08-21T11:59:01;92164.88;;;15.63
72405;BMP280;60395;52.020;113.548;2023-08-21T12:02:22;92171.50;;;15.33
72405;BMP280;60395;52.020;113.548;2023-08-21T12:05:29;92182.00;;;15.04
72405;BMP280;60395;52.020;113.548;2023-08-21T12:08:32;92179.31;;;14.75
72405;BMP280;60395;52.020;113.548;2023-08-21T12:11:36;92186.25;;;14.65
72405;BMP280;60395;52.020;113.548;2023-08-21T12:14:41;92187.09;;;14.62
72405;BMP280;60395;52.020;113.548;2023-08-21T12:17:44;92184.84;;;14.52
72405;BMP280;60395;52.020;113.548;2023-08-21T12:20:47;92183.41;;;14.38
72405;BMP280;60395;52.020;113.548;2023-08-21T12:23:51;92183.88;;;14.26
72405;BMP280;60395;52.020;113.548;2023-08-21T12:26:55;92179.38;;;14.23
72405;BMP280;60395;52.020;113.548;2023-08-21T12:29:58;92176.69;;;14.25
72405;BMP280;60395;52.020;113.548;2023-08-21T12:33:01;92172.66;;;14.26
72405;BMP280;60395;52.020;113.548;2023-08-21T12:36:24;92180.91;;;14.18
72405;BMP280;60395;52.020;113.548;2023-08-21T12:39:27;92181.31;;;14.07
72405;BMP280;60395;52.020;113.548;2023-08-21T12:42:30;92179.84;;;13.94
72405;BMP280;60395;52.020;113.548;2023-08-21T12:48:39;92187.81;;;13.75
72405;BMP280;60395;52.020;113.548;2023-08-21T12:51:42;92190.69;;;13.69
72405;BMP280;60395;52.020;113.548;2023-08-21T12:54:45;92184.81;;;13.67
72405;BMP280;60395;52.020;113.548;2023-08-21T12:57:49;92179.69;;;13.63
72405;BMP280;60395;52.020;113.548;2023-08-21T13:00:52;92184.50;;;13.58
72405;BMP280;60395;52.020;113.548;2023-08-21T13:03:55;92187.25;;;13.54
72405;BMP280;60395;52.020;113.548;2023-08-21T13:06:59;92182.94;;;13.46
72405;BMP280;60395;52.020;113.548;2023-08-21T13:10:03;92179.78;;;13.42
72405;BMP280;60395;52.020;113.548;2023-08-21T13:13:07;92177.88;;;13.40
72405;BMP280;60395;52.020;113.548;2023-08-21T13:16:10;92185.13;;;13.40
72405;BMP280;60395;52.020;113.548;2023-08-21T13:19:17;92177.22;;;13.40
72405;BMP280;60395;52.020;113.548;2023-08-21T13:22:23;92179.22;;;13.39
72405;BMP280;60395;52.020;113.548;2023-08-21T13:25:26;92182.56;;;13.38
72405;BMP280;60395;52.020;113.548;2023-08-21T13:28:30;92180.09;;;13.34
72405;BMP280;60395;52.020;113.548;2023-08-21T13:31:34;92188.56;;;13.36
72405;BMP280;60395;52.020;113.548;2023-08-21T13:34:37;92186.63;;;13.35
72405;BMP280;60395;52.020;113.548;2023-08-21T13:37:41;92186.06;;;13.32
72405;BMP280;60395;52.020;113.548;2023-08-21T13:40:44;92174.25;;;13.31
72405;BMP280;60395;52.020;113.548;2023-08-21T13:43:47;92182.16;;;13.31
72405;BMP280;60395;52.020;113.548;2023-08-21T13:46:52;92189.56;;;13.27
72405;BMP280;60395;52.020;113.548;2023-08-21T13:49:55;92188.41;;;13.22
72405;BMP280;60395;52.020;113.548;2023-08-21T13:52:58;92194.72;;;13.10
72405;BMP280;60395;52.020;113.548;2023-08-21T13:56:02;92196.94;;;13.04
72405;BMP280;60395;52.020;113.548;2023-08-21T13:59:05;92195.69;;;13.03
72405;BMP280;60395;52.020;113.548;2023-08-21T14:02:09;92189.03;;;13.04
72405;BMP280;60395;52.020;113.548;2023-08-21T14:05:13;92194.41;;;13.02
72405;BMP280;60395;52.020;113.548;2023-08-21T14:08:17;92176.63;;;13.00
72405;BMP280;60395;52.020;113.548;2023-08-21T14:11:21;92180.00;;;12.99
72405;BMP280;60395;52.020;113.548;2023-08-21T14:14:24;92182.03;;;12.96
72405;BMP280;60395;52.020;113.548;2023-08-21T14:17:27;92184.75;;;12.94
72405;BMP280;60395;52.020;113.548;2023-08-21T14:20:31;92178.97;;;12.89
72405;BMP280;60395;52.020;113.548;2023-08-21T14:23:34;92180.41;;;12.86
72405;BMP280;60395;52.020;113.548;2023-08-21T14:26:37;92189.06;;;12.83
72405;BMP280;60395;52.020;113.548;2023-08-21T14:29:43;92190.44;;;12.82
72405;BMP280;60395;52.020;113.548;2023-08-21T14:32:47;92188.50;;;12.80
72405;BMP280;60395;52.020;113.548;2023-08-21T14:35:51;92187.63;;;12.88
72405;BMP280;60395;52.020;113.548;2023-08-21T14:38:55;92189.13;;;13.02
72405;BMP280;60395;52.020;113.548;2023-08-21T14:41:58;92192.03;;;13.12
72405;BMP280;60395;52.020;113.548;2023-08-21T14:45:02;92190.47;;;13.19
72405;BMP280;60395;52.020;113.548;2023-08-21T14:48:06;92193.81;;;13.18
72405;BMP280;60395;52.020;113.548;2023-08-21T14:51:09;92190.53;;;13.17
72405;BMP280;60395;52.020;113.548;2023-08-21T14:54:12;92201.19;;;13.15
72405;BMP280;60395;52.020;113.548;2023-08-21T14:57:16;92190.00;;;13.15
72405;BMP280;60395;52.020;113.548;2023-08-21T15:00:19;92194.03;;;13.12
72405;BMP280;60395;52.020;113.548;2023-08-21T15:03:22;92199.25;;;13.14
72405;BMP280;60395;52.020;113.548;2023-08-21T15:06:26;92198.59;;;13.13
72405;BMP280;60395;52.020;113.548;2023-08-21T15:09:30;92194.03;;;13.12
72405;BMP280;60395;52.020;113.548;2023-08-21T15:12:33;92192.69;;;13.13
72405;BMP280;60395;52.020;113.548;2023-08-21T15:15:36;92191.34;;;13.14
72405;BMP280;60395;52.020;113.548;2023-08-21T15:18:40;92188.59;;;13.16
72405;BMP280;60395;52.020;113.548;2023-08-21T15:21:44;92191.88;;;13.16
72405;BMP280;60395;52.020;113.548;2023-08-21T15:24:47;92181.97;;;13.17
72405;BMP280;60395;52.020;113.548;2023-08-21T15:27:50;92187.25;;;13.17
72405;BMP280;60395;52.020;113.548;2023-08-21T15:30:54;92177.34;;;13.17
72405;BMP280;60395;52.020;113.548;2023-08-21T15:33:58;92187.38;;;13.15
72405;BMP280;60395;52.020;113.548;2023-08-21T15:37:02;92182.84;;;13.11
72405;BMP280;60395;52.020;113.548;2023-08-21T15:40:07;92186.81;;;13.10
72405;BMP280;60395;52.020;113.548;2023-08-21T15:43:11;92185.03;;;13.05
72405;BMP280;60395;52.020;113.548;2023-08-21T15:46:15;92188.47;;;13.01
72405;BMP280;60395;52.020;113.548;2023-08-21T15:49:18;92191.75;;;13.02
72405;BMP280;60395;52.020;113.548;2023-08-21T15:52:23;92181.91;;;13.00
72405;BMP280;60395;52.020;113.548;2023-08-21T15:55:26;92179.34;;;12.98
72405;BMP280;60395;52.020;113.548;2023-08-21T15:58:29;92182.03;;;12.96
72405;BMP280;60395;52.020;113.548;2023-08-21T16:01:32;92189.31;;;12.96
72405;BMP280;60395;52.020;113.548;2023-08-21T16:04:36;92180.03;;;12.97
72405;BMP280;60395;52.020;113.548;2023-08-21T16:07:39;92186.53;;;13.00
72405;BMP280;60395;52.020;113.548;2023-08-21T16:10:43;92191.81;;;13.00
72405;BMP280;60395;52.020;113.548;2023-08-21T16:13:46;92178.91;;;12.91
72405;BMP280;60395;52.020;113.548;2023-08-21T16:16:49;92188.38;;;12.84
72405;BMP280;60395;52.020;113.548;2023-08-21T16:19:53;92196.03;;;12.72
72405;BMP280;60395;52.020;113.548;2023-08-21T16:22:58;92194.06;;;12.52
72405;BMP280;60395;52.020;113.548;2023-08-21T16:26:01;92203.81;;;12.34
72405;BMP280;60395;52.020;113.548;2023-08-21T16:29:04;92202.13;;;12.25
72405;BMP280;60395;52.020;113.548;2023-08-21T16:32:08;92207.44;;;12.23
72405;BMP280;60395;52.020;113.548;2023-08-21T16:35:11;92202.91;;;12.21
72405;BMP280;60395;52.020;113.548;2023-08-21T16:38:14;92207.44;;;12.23
72405;BMP280;60395;52.020;113.548;2023-08-21T16:41:18;92202.00;;;12.29
72405;BMP280;60395;52.020;113.548;2023-08-21T16:44:21;92193.28;;;12.34
72405;BMP280;60395;52.020;113.548;2023-08-21T16:47:25;92201.13;;;12.36
72405;BMP280;60395;52.020;113.548;2023-08-21T16:50:28;92207.16;;;12.33
72405;BMP280;60395;52.020;113.548;2023-08-21T16:53:32;92208.09;;;12.23
72405;BMP280;60395;52.020;113.548;2023-08-21T16:56:35;92212.22;;;12.18
72405;BMP280;60395;52.020;113.548;2023-08-21T16:59:38;92202.91;;;12.21
72405;BMP280;60395;52.020;113.548;2023-08-21T17:02:42;92203.28;;;12.30
72405;BMP280;60395;52.020;113.548;2023-08-21T17:05:46;92201.63;;;12.41
72405;BMP280;60395;52.020;113.548;2023-08-21T17:08:50;92203.25;;;12.53
72405;BMP280;60395;52.020;113.548;2023-08-21T17:11:53;92206.97;;;12.60
72405;BMP280;60395;52.020;113.548;2023-08-21T17:14:56;92206.84;;;12.64
72405;BMP280;60395;52.020;113.548;2023-08-21T17:18:03;92198.88;;;12.66
72405;BMP280;60395;52.020;113.548;2023-08-21T17:21:07;92192.97;;;12.65
72405;BMP280;60395;52.020;113.548;2023-08-21T17:24:10;92196.16;;;12.68